createdAt,value
2018-09-04T00:00:46.822Z,99.99
2018-09-04T00:01:46.856Z,99.99
2018-09-04T00:02:46.827Z,99.99
2018-09-04T00:03:46.853Z,99.99
2018-09-04T00:04:46.884Z,99.99
2018-09-04T00:05:46.846Z,99.99
2018-09-04T00:06:46.854Z,99.99
2018-09-04T00:07:47.253Z,99.99
2018-09-04T00:08:46.835Z,99.99
2018-09-04T00:09:46.839Z,99.99
2018-09-04T00:10:46.846Z,99.99
2018-09-04T00:11:46.860Z,99.99
2018-09-04T00:12:46.868Z,99.99
2018-09-04T00:13:46.874Z,99.99
2018-09-04T00:19:03.847Z,99.99
2018-09-04T00:19:16.352Z,99.99
2018-09-04T00:20:16.327Z,99.99
2018-09-04T00:21:16.365Z,99.99
2018-09-04T00:22:16.339Z,99.99
2018-09-04T00:23:16.386Z,99.99
2018-09-04T00:24:16.365Z,99.99
2018-09-04T00:25:16.325Z,99.99
2018-09-04T00:26:16.339Z,99.99
2018-09-04T00:27:16.360Z,99.99
2018-09-04T00:28:16.384Z,99.99
2018-09-04T00:29:16.363Z,99.99
2018-09-04T00:30:16.378Z,99.99
2018-09-04T00:31:16.388Z,99.99
2018-09-04T00:32:16.381Z,99.99
2018-09-04T00:33:16.357Z,99.99
2018-09-04T00:34:16.426Z,99.99
2018-09-04T00:35:16.373Z,99.99
2018-09-04T00:39:45.873Z,99.99
2018-09-04T00:40:45.845Z,99.99
2018-09-04T00:41:45.888Z,99.99
2018-09-04T00:42:45.858Z,99.99
2018-09-04T00:43:45.865Z,99.99
2018-09-04T00:44:45.874Z,99.99
2018-09-04T00:45:45.910Z,99.99
2018-09-04T00:46:45.890Z,99.99
2018-09-04T00:47:45.872Z,99.99
2018-09-04T00:48:45.885Z,99.99
2018-09-04T00:49:45.865Z,99.99
2018-09-04T00:50:45.874Z,99.99
2018-09-04T00:51:45.896Z,99.99
2018-09-04T00:52:45.853Z,99.99
2018-09-04T00:53:45.898Z,99.99
2018-09-04T00:58:15.485Z,99.99
2018-09-04T00:59:15.419Z,99.99
2018-09-04T01:00:15.427Z,99.99
2018-09-04T01:01:15.436Z,99.99
2018-09-04T01:02:15.437Z,99.99
2018-09-04T01:03:15.445Z,99.99
2018-09-04T01:04:15.454Z,99.99
2018-09-04T01:05:15.461Z,99.99
2018-09-04T01:06:15.436Z,99.99
2018-09-04T01:07:15.444Z,99.99
2018-09-04T01:08:15.461Z,99.99
2018-09-04T01:09:15.453Z,99.99
2018-09-04T01:10:15.456Z,99.99
2018-09-04T01:11:15.509Z,99.99
2018-09-04T01:12:15.440Z,99.99
2018-09-04T01:13:15.445Z,99.99
2018-09-04T01:14:15.453Z,99.99
2018-09-04T01:15:15.457Z,99.99
2018-09-04T01:16:15.465Z,99.99
2018-09-04T01:17:15.472Z,99.99
2018-09-04T01:18:16.843Z,99.99
2018-09-04T01:19:15.447Z,99.99
2018-09-04T01:20:15.456Z,99.99
2018-09-04T01:21:15.479Z,99.99
2018-09-04T01:23:20.030Z,99.99
2018-09-04T01:23:32.252Z,99.99
2018-09-04T01:24:32.208Z,99.99
2018-09-04T01:25:32.224Z,99.99
2018-09-04T01:26:32.223Z,99.99
2018-09-04T01:27:32.231Z,99.99
2018-09-04T01:28:32.982Z,99.99
2018-09-04T01:29:32.213Z,99.99
2018-09-04T01:30:32.248Z,99.99
2018-09-04T01:31:32.216Z,99.99
2018-09-04T01:32:32.223Z,99.99
2018-09-04T01:33:32.231Z,99.99
2018-09-04T01:34:32.272Z,99.99
2018-09-04T01:35:32.244Z,99.99
2018-09-04T01:36:32.271Z,99.99
2018-09-04T01:37:32.232Z,99.99
2018-09-04T01:38:36.461Z,99.99
2018-09-04T01:39:32.252Z,99.99
2018-09-04T01:40:32.252Z,99.99
2018-09-04T01:41:32.261Z,99.99
2018-09-04T01:42:32.256Z,99.99
2018-09-04T01:43:32.331Z,99.99
2018-09-04T01:44:32.240Z,99.99
2018-09-04T01:45:32.245Z,99.99
2018-09-04T01:46:32.255Z,99.99
2018-09-04T01:47:32.294Z,99.99
2018-09-04T01:48:32.295Z,99.99
2018-09-04T01:49:32.268Z,99.99
2018-09-04T01:50:32.278Z,99.99
2018-09-04T01:51:32.249Z,99.99
2018-09-04T01:52:32.267Z,99.99
2018-09-04T01:53:32.351Z,99.99
2018-09-04T01:54:32.264Z,99.99
2018-09-04T01:55:32.275Z,99.99
2018-09-04T01:56:32.278Z,99.99
2018-09-04T01:57:32.284Z,99.99
2018-09-04T01:58:32.304Z,99.99
2018-09-04T01:59:32.281Z,99.99
2018-09-04T02:00:32.270Z,99.99
2018-09-04T02:01:32.322Z,99.99
2018-09-04T02:02:32.288Z,99.99
2018-09-04T02:03:32.338Z,99.99
2018-09-04T02:08:50.327Z,99.99
2018-09-04T02:09:02.946Z,99.99
2018-09-04T02:10:02.914Z,99.99
2018-09-04T02:11:02.884Z,99.99
2018-09-04T02:12:02.896Z,99.99
2018-09-04T02:13:02.902Z,99.99
2018-09-04T02:14:03.013Z,99.99
2018-09-04T02:15:02.885Z,99.99
2018-09-04T02:16:02.886Z,99.99
2018-09-04T02:17:02.929Z,99.99
2018-09-04T02:18:02.901Z,99.99
2018-09-04T02:19:02.941Z,99.99
2018-09-04T02:20:02.968Z,99.99
2018-09-04T02:21:02.937Z,99.99
2018-09-04T02:22:02.930Z,99.99
2018-09-04T02:23:02.934Z,99.99
2018-09-04T02:24:02.903Z,99.99
2018-09-04T02:25:02.912Z,99.99
2018-09-04T02:26:02.916Z,99.99
2018-09-04T02:27:03.091Z,99.99
2018-09-04T02:28:02.899Z,99.99
2018-09-04T02:29:02.937Z,99.99
2018-09-04T02:30:02.945Z,99.99
2018-09-04T02:31:02.914Z,99.99
2018-09-04T02:32:02.925Z,99.99
2018-09-04T02:33:02.998Z,99.99
2018-09-04T02:34:02.971Z,99.99
2018-09-04T02:35:03.026Z,99.99
2018-09-04T02:39:32.979Z,99.99
2018-09-04T02:40:32.982Z,99.99
2018-09-04T02:41:32.965Z,99.99
2018-09-04T02:42:33.000Z,99.99
2018-09-04T02:43:32.968Z,99.99
2018-09-04T02:44:32.971Z,99.99
2018-09-04T02:45:32.992Z,99.99
2018-09-04T02:46:32.993Z,99.99
2018-09-04T02:47:32.976Z,99.99
2018-09-04T02:48:32.972Z,99.99
2018-09-04T02:49:32.977Z,99.99
2018-09-04T02:50:32.982Z,99.99
2018-09-04T02:51:32.982Z,99.99
2018-09-04T02:52:32.969Z,99.99
2018-09-04T02:53:49.808Z,99.99
2018-09-04T02:54:49.757Z,99.99
2018-09-04T02:55:49.738Z,99.99
2018-09-04T02:56:49.705Z,99.99
2018-09-04T02:57:49.712Z,99.99
2018-09-04T02:58:49.719Z,99.99
2018-09-04T02:59:49.734Z,99.99
2018-09-04T03:05:07.201Z,99.99
2018-09-04T03:05:19.385Z,99.99
2018-09-04T03:06:19.368Z,99.99
2018-09-04T03:07:19.382Z,99.99
2018-09-04T03:08:19.380Z,99.99
2018-09-04T03:09:19.381Z,99.99
2018-09-04T03:10:19.385Z,99.99
2018-09-04T03:11:19.363Z,99.99
2018-09-04T03:12:19.371Z,99.99
2018-09-04T03:13:19.521Z,99.99
2018-09-04T03:14:19.374Z,99.99
2018-09-04T03:15:19.394Z,99.99
2018-09-04T03:16:19.385Z,99.99
2018-09-04T03:17:19.479Z,99.99
2018-09-04T03:18:20.083Z,99.99
2018-09-04T03:19:19.374Z,99.99
2018-09-04T03:20:19.387Z,99.99
2018-09-04T03:21:19.387Z,99.99
2018-09-04T03:22:19.394Z,99.99
2018-09-04T03:23:19.448Z,99.99
2018-09-04T03:24:19.417Z,99.99
2018-09-04T03:25:19.416Z,99.99
2018-09-04T03:26:19.385Z,99.99
2018-09-04T03:27:21.338Z,99.99
2018-09-04T03:28:19.410Z,99.99
2018-09-04T03:29:19.409Z,99.99
2018-09-04T03:30:19.430Z,99.99
2018-09-04T03:31:19.426Z,99.99
2018-09-04T03:32:19.457Z,99.99
2018-09-04T03:33:19.439Z,99.99
2018-09-04T03:34:19.443Z,99.99
2018-09-04T03:35:19.857Z,99.99
2018-09-04T03:36:19.454Z,99.99
2018-09-04T03:37:19.462Z,99.99
2018-09-04T03:38:19.465Z,99.99
2018-09-04T03:39:19.439Z,99.99
2018-09-04T03:40:19.428Z,99.99
2018-09-04T03:41:19.417Z,99.99
2018-09-04T03:42:19.481Z,99.99
2018-09-04T03:43:19.720Z,99.99
2018-09-04T03:44:19.574Z,99.99
2018-09-04T03:45:19.446Z,99.99
2018-09-04T03:46:19.485Z,99.99
2018-09-04T03:47:19.683Z,99.99
2018-09-04T03:48:19.428Z,99.99
2018-09-04T03:49:19.439Z,99.99
2018-09-04T03:50:19.443Z,99.99
2018-09-04T03:51:19.456Z,99.99
2018-09-04T03:52:19.586Z,99.99
2018-09-04T03:53:19.466Z,99.99
2018-09-04T03:54:19.465Z,99.99
2018-09-04T03:55:19.438Z,99.99
2018-09-04T03:56:19.450Z,99.99
2018-09-04T03:57:19.452Z,99.99
2018-09-04T03:58:19.456Z,99.99
2018-09-04T03:59:19.503Z,99.99
2018-09-04T04:00:19.468Z,99.99
2018-09-04T04:01:19.516Z,99.99
2018-09-04T04:02:19.465Z,99.99
2018-09-04T04:03:19.460Z,99.99
2018-09-04T04:04:19.495Z,99.99
2018-09-04T04:05:19.469Z,99.99
2018-09-04T04:06:19.475Z,99.99
2018-09-04T04:07:19.482Z,99.99
2018-09-04T04:08:19.494Z,99.99
2018-09-04T04:09:19.836Z,99.99
2018-09-04T04:10:19.504Z,99.99
2018-09-04T04:11:19.486Z,99.99
2018-09-04T04:12:19.499Z,99.99
2018-09-04T04:13:19.488Z,99.99
2018-09-04T04:14:19.467Z,99.99
2018-09-04T04:15:19.887Z,99.99
2018-09-04T04:16:19.479Z,99.99
2018-09-04T04:17:19.690Z,99.99
2018-09-04T04:18:19.490Z,99.99
2018-09-04T04:19:19.496Z,99.99
2018-09-04T04:20:19.544Z,99.99
2018-09-04T04:21:19.579Z,99.99
2018-09-04T04:22:19.520Z,99.99
2018-09-04T04:23:19.490Z,99.99
2018-09-04T04:24:19.491Z,99.99
2018-09-04T04:25:19.533Z,99.99
2018-09-04T04:26:19.525Z,99.99
2018-09-04T04:27:19.516Z,99.99
2018-09-04T04:28:19.979Z,99.99
2018-09-04T04:29:19.497Z,99.99
2018-09-04T04:36:00.231Z,99.99
2018-09-04T04:37:00.189Z,99.99
2018-09-04T04:38:00.207Z,99.99
2018-09-04T04:39:00.209Z,99.99
2018-09-04T04:40:00.251Z,99.99
2018-09-04T04:41:00.221Z,99.99
2018-09-04T04:42:00.221Z,99.99
2018-09-04T04:43:00.193Z,99.99
2018-09-04T04:44:00.234Z,99.99
2018-09-04T04:45:00.240Z,99.99
2018-09-04T04:46:00.220Z,99.99
2018-09-04T04:47:00.225Z,99.99
2018-09-04T04:48:00.402Z,99.99
2018-09-04T04:49:00.246Z,99.99
2018-09-04T04:50:00.256Z,99.99
2018-09-04T04:51:00.224Z,99.99
2018-09-04T04:52:00.229Z,99.99
2018-09-04T04:53:00.264Z,99.99
2018-09-04T04:54:00.231Z,99.99
2018-09-04T04:55:00.308Z,99.99
2018-09-04T04:56:00.264Z,99.99
2018-09-04T04:57:00.252Z,99.99
2018-09-04T04:58:00.228Z,99.99
2018-09-04T04:59:00.247Z,99.99
2018-09-04T05:00:00.241Z,99.99
2018-09-04T05:01:00.974Z,99.99
2018-09-04T05:02:00.256Z,99.99
2018-09-04T05:03:00.290Z,99.99
2018-09-04T05:04:00.243Z,99.99
2018-09-04T05:05:00.235Z,99.99
2018-09-04T05:06:00.260Z,99.99
2018-09-04T05:07:00.285Z,99.99
2018-09-04T05:08:00.252Z,99.99
2018-09-04T05:09:00.263Z,99.99
2018-09-04T05:10:00.275Z,99.99
2018-09-04T05:11:00.324Z,99.99
2018-09-04T05:15:29.694Z,99.99
2018-09-04T05:16:29.766Z,99.99
2018-09-04T05:17:29.669Z,99.99
2018-09-04T05:18:29.715Z,99.99
2018-09-04T05:19:30.369Z,99.99
2018-09-04T05:20:29.689Z,99.99
2018-09-04T05:21:29.730Z,99.99
2018-09-04T05:22:29.772Z,99.99
2018-09-04T05:23:29.706Z,99.99
2018-09-04T05:24:29.723Z,99.99
2018-09-04T05:25:29.688Z,99.99
2018-09-04T05:26:29.693Z,99.99
2018-09-04T05:27:29.709Z,99.99
2018-09-04T05:28:29.712Z,99.99
2018-09-04T05:29:29.772Z,99.99
2018-09-04T05:30:29.739Z,99.99
2018-09-04T05:31:29.729Z,99.99
2018-09-04T05:32:29.736Z,99.99
2018-09-04T05:33:29.741Z,99.99
2018-09-04T05:34:29.728Z,99.99
2018-09-04T05:35:29.719Z,99.99
2018-09-04T05:36:29.739Z,99.99
2018-09-04T05:37:29.729Z,99.99
2018-09-04T05:38:29.763Z,99.99
2018-09-04T05:39:29.714Z,99.99
2018-09-04T05:40:29.722Z,99.99
2018-09-04T05:41:29.737Z,99.99
2018-09-04T05:42:29.731Z,99.99
2018-09-04T05:43:29.755Z,99.99
2018-09-04T05:44:29.714Z,99.99
2018-09-04T05:45:29.715Z,99.99
2018-09-04T05:46:29.726Z,99.99
2018-09-04T05:47:29.735Z,99.99
2018-09-04T05:48:29.742Z,99.99
2018-09-04T05:49:29.741Z,99.99
2018-09-04T05:50:29.755Z,99.99
2018-09-04T05:54:59.188Z,99.99
2018-09-04T05:55:59.134Z,99.99
2018-09-04T05:56:59.142Z,99.99
2018-09-04T05:57:59.149Z,99.99
2018-09-04T05:58:59.227Z,99.99
2018-09-04T05:59:59.209Z,99.99
2018-09-04T06:00:59.183Z,99.99
2018-09-04T06:01:59.178Z,99.99
2018-09-04T06:02:59.152Z,99.99
2018-09-04T06:03:59.164Z,99.99
2018-09-04T06:04:59.165Z,99.99
2018-09-04T06:05:59.205Z,99.99
2018-09-04T06:06:59.184Z,99.99
2018-09-04T06:07:59.154Z,99.99
2018-09-04T06:08:59.197Z,99.99
2018-09-04T06:09:59.173Z,99.99
2018-09-04T06:10:59.170Z,99.99
2018-09-04T06:11:59.205Z,99.99
2018-09-04T06:12:59.178Z,99.99
2018-09-04T06:13:59.238Z,99.99
2018-09-04T06:14:59.301Z,99.99
2018-09-04T06:15:59.173Z,99.99
2018-09-04T06:16:59.204Z,99.99
2018-09-04T06:17:59.176Z,99.99
2018-09-04T06:18:59.193Z,99.99
2018-09-04T06:19:59.252Z,99.99
2018-09-04T06:20:59.245Z,99.99
2018-09-04T06:21:59.213Z,99.99
2018-09-04T06:22:59.228Z,99.99
2018-09-04T06:23:59.193Z,99.99
2018-09-04T06:24:59.187Z,99.99
2018-09-04T06:25:59.212Z,99.99
2018-09-04T06:26:59.202Z,99.99
2018-09-04T06:27:59.220Z,99.99
2018-09-04T06:28:59.185Z,99.99
2018-09-04T06:29:59.606Z,99.99
2018-09-04T06:30:59.194Z,99.99
2018-09-04T06:31:59.202Z,99.99
2018-09-04T06:32:59.211Z,99.99
2018-09-04T06:33:59.273Z,99.99
2018-09-04T06:34:59.236Z,99.99
2018-09-04T06:40:16.423Z,99.99
2018-09-04T06:40:28.678Z,99.99
2018-09-04T06:41:28.680Z,99.99
2018-09-04T06:42:28.693Z,99.99
2018-09-04T06:43:28.674Z,99.99
2018-09-04T06:44:28.635Z,99.99
2018-09-04T06:45:28.639Z,99.99
2018-09-04T06:46:28.733Z,99.99
2018-09-04T06:47:28.688Z,99.99
2018-09-04T06:48:28.631Z,99.99
2018-09-04T06:49:28.640Z,99.99
2018-09-04T06:50:28.643Z,99.99
2018-09-04T06:51:28.647Z,99.99
2018-09-04T06:52:28.651Z,99.99
2018-09-04T06:53:28.662Z,99.99
2018-09-04T06:54:28.710Z,99.99
2018-09-04T06:55:28.637Z,99.99
2018-09-04T06:56:28.719Z,99.99
2018-09-04T06:57:28.658Z,99.99
2018-09-04T06:58:28.703Z,99.99
2018-09-04T06:59:28.781Z,99.99
2018-09-04T07:00:28.709Z,99.99
2018-09-04T07:01:28.661Z,99.99
2018-09-04T07:02:28.656Z,99.99
2018-09-04T07:03:28.675Z,99.99
2018-09-04T07:04:28.737Z,99.99
2018-09-04T07:05:28.874Z,99.99
2018-09-04T07:06:28.840Z,99.99
2018-09-04T07:07:28.739Z,99.99
2018-09-04T07:08:28.812Z,99.99
2018-09-04T07:09:28.698Z,99.99
2018-09-04T07:10:28.666Z,99.99
2018-09-04T07:11:28.713Z,99.99
2018-09-04T07:12:28.716Z,99.99
2018-09-04T07:13:28.703Z,99.99
2018-09-04T07:14:28.691Z,99.99
2018-09-04T07:15:28.716Z,99.99
2018-09-04T07:16:28.706Z,99.99
2018-09-04T07:17:28.725Z,99.99
2018-09-04T07:18:28.690Z,99.99
2018-09-04T07:19:28.704Z,99.99
2018-09-04T07:20:28.709Z,99.99
2018-09-04T07:21:28.709Z,99.99
2018-09-04T07:22:28.686Z,99.99
2018-09-04T07:23:28.727Z,99.99
2018-09-04T07:24:28.739Z,99.99
2018-09-04T07:25:28.697Z,99.99
2018-09-04T07:32:09.535Z,99.99
2018-09-04T07:33:09.519Z,99.99
2018-09-04T07:34:09.515Z,99.99
2018-09-04T07:35:09.516Z,99.99
2018-09-04T07:36:09.525Z,99.99
2018-09-04T07:37:09.592Z,99.99
2018-09-04T07:38:09.528Z,99.99
2018-09-04T07:39:09.507Z,99.99
2018-09-04T07:40:09.529Z,99.99
2018-09-04T07:41:09.521Z,99.99
2018-09-04T07:42:09.572Z,99.99
2018-09-04T07:43:09.548Z,99.99
2018-09-04T07:44:09.543Z,99.99
2018-09-04T07:45:09.555Z,99.99
2018-09-04T07:46:09.547Z,99.99
2018-09-04T07:47:09.550Z,99.99
2018-09-04T07:48:09.537Z,99.99
2018-09-04T07:49:09.539Z,99.99
2018-09-04T07:50:09.814Z,99.99
2018-09-04T07:51:09.534Z,99.99
2018-09-04T07:52:09.535Z,99.99
2018-09-04T07:53:09.635Z,99.99
2018-09-04T07:54:09.546Z,99.99
2018-09-04T07:55:09.656Z,99.99
2018-09-04T07:56:09.566Z,99.99
2018-09-04T07:57:09.554Z,99.99
2018-09-04T07:58:09.564Z,99.99
2018-09-04T07:59:09.565Z,99.99
2018-09-04T08:00:09.571Z,99.99
2018-09-04T08:01:09.650Z,99.99
2018-09-04T08:02:09.556Z,99.99
2018-09-04T08:03:09.564Z,99.99
2018-09-04T08:04:09.586Z,99.99
2018-09-04T08:05:09.579Z,99.99
2018-09-04T08:06:09.586Z,99.99
2018-09-04T08:07:09.586Z,99.99
2018-09-04T08:08:09.665Z,99.99
2018-09-04T08:09:09.572Z,99.99
2018-09-04T08:10:09.840Z,99.99
2018-09-04T08:11:09.579Z,99.99
2018-09-04T08:12:09.584Z,99.99
2018-09-04T08:13:09.644Z,99.99
2018-09-04T08:16:16.869Z,99.99
2018-09-04T08:16:29.373Z,99.99
2018-09-04T08:17:29.262Z,99.99
2018-09-04T08:18:29.228Z,99.99
2018-09-04T08:19:29.236Z,99.99
2018-09-04T08:20:29.337Z,99.99
2018-09-04T08:21:29.273Z,99.99
2018-09-04T08:22:29.314Z,99.99
2018-09-04T08:23:29.285Z,99.99
2018-09-04T08:24:29.256Z,99.99
2018-09-04T08:25:29.296Z,99.99
2018-09-04T08:26:29.340Z,99.99
2018-09-04T08:27:29.242Z,99.99
2018-09-04T08:28:29.247Z,99.99
2018-09-04T08:29:29.305Z,99.99
2018-09-04T08:30:29.258Z,99.99
2018-09-04T08:31:29.265Z,99.99
2018-09-04T08:32:29.313Z,99.99
2018-09-04T08:33:29.263Z,99.99
2018-09-04T08:34:29.256Z,99.99
2018-09-04T08:35:29.299Z,99.99
2018-09-04T08:36:29.338Z,99.99
2018-09-04T08:37:29.281Z,99.99
2018-09-04T08:38:29.280Z,99.99
2018-09-04T08:39:29.323Z,99.99
2018-09-04T08:40:29.272Z,99.99
2018-09-04T08:41:29.276Z,99.99
2018-09-04T08:42:29.285Z,99.99
2018-09-04T08:43:29.290Z,99.99
2018-09-04T08:44:29.282Z,99.99
2018-09-04T08:45:29.287Z,99.99
2018-09-04T08:46:29.297Z,99.99
2018-09-04T08:47:29.313Z,99.99
2018-09-04T08:48:29.294Z,99.99
2018-09-04T08:49:29.280Z,99.99
2018-09-04T08:50:29.384Z,99.99
2018-09-04T08:51:29.302Z,99.99
2018-09-04T08:52:29.302Z,99.99
2018-09-04T08:53:29.382Z,99.99
2018-09-04T08:54:29.279Z,99.99
2018-09-04T08:55:29.329Z,99.99
2018-09-04T08:56:29.297Z,99.99
2018-09-04T08:57:29.299Z,99.99
2018-09-04T08:58:29.368Z,99.99
2018-09-04T08:59:29.324Z,99.99
2018-09-04T09:00:29.324Z,99.99
2018-09-04T09:01:29.299Z,99.99
2018-09-04T09:02:29.298Z,99.99
2018-09-04T09:03:29.351Z,99.99
2018-09-04T09:04:29.327Z,99.99
2018-09-04T09:05:29.397Z,99.99
2018-09-04T09:06:29.336Z,99.99
2018-09-04T09:07:29.348Z,99.99
2018-09-04T09:08:29.390Z,99.99
2018-09-04T09:09:29.318Z,99.99
2018-09-04T09:10:29.320Z,99.99
2018-09-04T09:11:29.337Z,99.99
2018-09-04T09:12:29.343Z,99.99
2018-09-04T09:13:29.348Z,99.99
2018-09-04T09:14:29.343Z,99.99
2018-09-04T09:15:29.314Z,99.99
2018-09-04T09:16:29.338Z,99.99
2018-09-04T09:17:29.335Z,99.99
2018-09-04T09:18:29.348Z,99.99
2018-09-04T09:19:30.001Z,99.99
2018-09-04T09:20:29.381Z,99.99
2018-09-04T09:21:29.333Z,99.99
2018-09-04T09:22:29.332Z,99.99
2018-09-04T09:23:29.337Z,99.99
2018-09-04T09:24:29.339Z,99.99
2018-09-04T09:25:29.349Z,99.99
2018-09-04T09:26:29.351Z,99.99
2018-09-04T09:27:29.361Z,99.99
2018-09-04T09:28:29.373Z,99.99
2018-09-04T09:29:29.387Z,99.99
2018-09-04T09:30:29.363Z,99.99
2018-09-04T09:31:29.356Z,99.99
2018-09-04T09:32:29.357Z,99.99
2018-09-04T09:33:29.369Z,99.99
2018-09-04T09:34:29.370Z,99.99
2018-09-04T09:35:29.360Z,99.99
2018-09-04T09:36:29.482Z,99.99
2018-09-04T09:37:29.359Z,99.99
2018-09-04T09:41:58.400Z,99.99
2018-09-04T09:42:58.367Z,99.99
2018-09-04T09:43:58.377Z,99.99
2018-09-04T09:46:17.740Z,99.99
2018-09-04T09:47:17.804Z,99.99
2018-09-04T09:48:17.763Z,99.99
2018-09-04T09:49:17.768Z,99.99
2018-09-04T09:50:17.803Z,99.99
2018-09-04T09:51:17.783Z,99.99
2018-09-04T09:52:17.785Z,99.99
2018-09-04T09:53:17.882Z,99.99
2018-09-04T09:54:17.761Z,99.99
2018-09-04T09:55:17.800Z,99.99
2018-09-04T09:56:17.955Z,99.99
2018-09-04T09:57:17.796Z,99.99
2018-09-04T09:58:17.763Z,99.99
2018-09-04T09:59:17.812Z,99.99
2018-09-04T10:00:17.885Z,99.99
2018-09-04T10:01:17.786Z,99.99
2018-09-04T10:02:17.781Z,99.99
2018-09-04T10:03:17.784Z,99.99
2018-09-04T10:04:17.827Z,99.99
2018-09-04T10:05:17.780Z,99.99
2018-09-04T10:06:17.771Z,99.99
2018-09-04T10:07:17.778Z,99.99
2018-09-04T10:08:17.827Z,99.99
2018-09-04T10:09:17.797Z,99.99
2018-09-04T10:10:17.859Z,99.99
2018-09-04T10:11:19.217Z,99.99
2018-09-04T10:12:17.806Z,99.99
2018-09-04T10:13:17.782Z,99.99
2018-09-04T10:14:17.787Z,99.99
2018-09-04T10:15:17.797Z,99.99
2018-09-04T10:16:17.842Z,99.99
2018-09-04T10:17:17.815Z,99.99
2018-09-04T10:18:17.821Z,99.99
2018-09-04T10:19:17.794Z,99.99
2018-09-04T10:20:17.833Z,99.99
2018-09-04T10:21:17.877Z,99.99
2018-09-04T10:22:17.808Z,99.99
2018-09-04T10:23:17.865Z,99.99
2018-09-04T10:24:17.821Z,99.99
2018-09-04T10:25:17.862Z,99.99
2018-09-04T10:26:17.844Z,99.99
2018-09-04T10:32:56.551Z,99.99
2018-09-04T10:33:56.522Z,99.99
2018-09-04T10:34:56.507Z,99.99
2018-09-04T10:35:56.572Z,99.99
2018-09-04T10:36:56.511Z,99.99
2018-09-04T10:37:56.518Z,99.99
2018-09-04T10:38:56.533Z,99.74
2018-09-04T10:43:26.854Z,99.07
2018-09-04T10:44:26.533Z,98.78
2018-09-04T10:45:26.430Z,98.15
2018-09-04T10:46:26.426Z,98.05
2018-09-04T10:47:26.450Z,97.14
2018-09-04T10:48:26.483Z,96.84
2018-09-04T10:49:26.475Z,97.57
2018-09-04T10:50:26.454Z,96.75
2018-09-04T10:51:26.471Z,95.64
2018-09-04T10:52:26.440Z,95.54
2018-09-04T10:53:26.449Z,95.64
2018-09-04T10:54:26.478Z,95.59
2018-09-04T10:55:26.564Z,95.35
2018-09-04T10:56:26.459Z,94.48
2018-09-04T10:57:26.467Z,93.8
2018-09-04T10:58:26.505Z,94.29
2018-09-04T10:59:26.445Z,93.9
2018-09-04T11:00:26.452Z,93.9
2018-09-04T11:01:26.463Z,94.43
2018-09-04T11:02:26.615Z,94.87
2018-09-04T11:03:26.472Z,93.8
2018-09-04T11:04:26.479Z,93.66
2018-09-04T11:05:26.494Z,93.85
2018-09-04T11:06:26.454Z,94.82
2018-09-04T11:07:26.462Z,94.33
2018-09-04T11:08:26.473Z,94.82
2018-09-04T11:09:26.577Z,95.01
2018-09-04T11:10:26.550Z,94.24
2018-09-04T11:11:26.508Z,93.56
2018-09-04T11:12:26.530Z,92.65
2018-09-04T11:13:26.538Z,92.16
2018-09-04T11:14:26.482Z,92.25
2018-09-04T11:15:26.488Z,93.32
2018-09-04T11:16:26.534Z,92.65
2018-09-04T11:17:26.510Z,92.55
2018-09-04T11:18:26.479Z,92.16
2018-09-04T11:19:26.514Z,92.01
2018-09-04T11:20:26.516Z,91.24
2018-09-04T11:21:26.500Z,90.85
2018-09-04T11:22:26.527Z,90.95
2018-09-04T11:23:26.501Z,91.05
2018-09-04T11:24:26.513Z,90.51
2018-09-04T11:26:46.488Z,91.48
2018-09-04T11:27:46.478Z,91.09
2018-09-04T11:28:46.473Z,90.7
2018-09-04T11:29:46.478Z,90.85
2018-09-04T11:30:46.634Z,90.95
2018-09-04T11:31:46.451Z,90.17
2018-09-04T11:32:46.527Z,91.09
2018-09-04T11:33:46.486Z,90.75
2018-09-04T11:34:46.481Z,90.9
2018-09-04T11:35:46.897Z,90.12
2018-09-04T11:36:46.488Z,91.09
2018-09-04T11:37:46.491Z,90.85
2018-09-04T11:38:46.469Z,91.48
2018-09-04T11:39:46.544Z,91.24
2018-09-04T11:40:46.607Z,90.12
2018-09-04T11:41:46.491Z,89.64
2018-09-04T11:42:46.495Z,89.25
2018-09-04T11:43:46.505Z,89.01
2018-09-04T11:44:46.507Z,88.37
2018-09-04T11:45:46.562Z,88.47
2018-09-04T11:46:46.486Z,88.71
2018-09-04T11:47:46.498Z,87.31
2018-09-04T11:48:46.505Z,87.45
2018-09-04T11:49:46.572Z,86.58
2018-09-04T11:50:46.647Z,86.48
2018-09-04T11:52:03.478Z,86.24
2018-09-04T11:53:03.454Z,86.19
2018-09-04T11:54:03.500Z,85.8
2018-09-04T11:55:03.475Z,86
2018-09-04T11:56:03.474Z,86.29
2018-09-04T11:57:03.495Z,85.8
2018-09-04T11:58:03.496Z,86.09
2018-09-04T11:59:03.464Z,86.19
2018-09-04T12:00:03.474Z,86.09
2018-09-04T12:01:03.471Z,86.68
2018-09-04T12:02:03.629Z,86.29
2018-09-04T12:03:03.521Z,85.85
2018-09-04T12:04:03.532Z,86.23
2018-09-04T12:05:03.519Z,84.05
2018-09-04T12:06:03.646Z,83.56
2018-09-04T12:07:03.553Z,83.02
2018-09-04T12:08:03.521Z,83.4
2018-09-04T12:09:03.933Z,83.22
2018-09-04T12:10:03.502Z,83.64
2018-09-04T12:11:03.549Z,83.6
2018-09-04T12:12:03.511Z,83.31
2018-09-04T12:17:21.384Z,82.77
2018-09-04T12:17:33.651Z,79.9
2018-09-04T12:18:33.951Z,79.51
2018-09-04T12:19:33.588Z,79.41
2018-09-04T12:20:33.596Z,79.12
2018-09-04T12:21:33.892Z,79.12
2018-09-04T12:22:33.616Z,79.12
2018-09-04T12:23:33.614Z,79.22
2018-09-04T12:24:33.764Z,78.73
2018-09-04T12:25:33.610Z,78.34
2018-09-04T12:26:33.731Z,78.44
2018-09-04T12:27:33.647Z,78.19
2018-09-04T12:28:33.616Z,77.41
2018-09-04T12:29:33.629Z,76.92
2018-09-04T12:30:33.595Z,77.51
2018-09-04T12:31:34.027Z,77.22
2018-09-04T12:32:33.609Z,77.22
2018-09-04T12:33:33.616Z,76.34
2018-09-04T12:34:33.830Z,76.67
2018-09-04T12:35:33.630Z,77.31
2018-09-04T12:36:33.704Z,77.61
2018-09-04T12:37:33.678Z,77.84
2018-09-04T12:38:33.655Z,78.54
2018-09-04T12:39:33.620Z,78.64
2018-09-04T12:40:33.624Z,78.73
2018-09-04T12:41:33.635Z,79.96
2018-09-04T12:42:33.803Z,80.34
2018-09-04T12:43:33.663Z,80.05
2018-09-04T12:44:33.653Z,78.99
2018-09-04T12:45:33.647Z,79.14
2018-09-04T12:46:33.634Z,79.33
2018-09-04T12:47:33.640Z,79.43
2018-09-04T12:48:33.763Z,79.72
2018-09-04T12:49:33.657Z,79.33
2018-09-04T12:50:33.657Z,78.85
2018-09-04T12:51:33.679Z,78.81
2018-09-04T12:52:34.008Z,79
2018-09-04T12:53:33.690Z,79.39
2018-09-04T12:54:33.835Z,79.49
2018-09-04T12:55:33.656Z,79.3
2018-09-04T12:56:33.842Z,78.81
2018-09-04T12:57:33.670Z,78.81
2018-09-04T12:58:33.679Z,77.94
2018-09-04T12:59:33.666Z,77.2
2018-09-04T13:00:33.796Z,76.81
2018-09-04T13:01:33.696Z,76.32
2018-09-04T13:02:33.670Z,76.42
2018-09-04T13:03:33.672Z,76.72
2018-09-04T13:04:33.688Z,77.24
2018-09-04T13:05:33.693Z,76.46
2018-09-04T13:06:33.691Z,76.37
2018-09-04T13:07:33.670Z,76.75
2018-09-04T13:08:33.673Z,76.75
2018-09-04T13:09:33.684Z,76.75
2018-09-04T13:23:27.855Z,76.17
2018-09-04T13:23:39.778Z,74.3
2018-09-04T13:24:39.841Z,73.91
2018-09-04T13:27:47.019Z,73.27
2018-09-04T13:27:59.000Z,74.15
2018-09-04T13:28:59.022Z,74.69
2018-09-04T13:29:59.079Z,73.91
2018-09-04T13:30:59.146Z,73.91
2018-09-04T13:31:59.082Z,73.56
2018-09-04T13:32:59.099Z,74.05
2018-09-04T13:33:59.132Z,74.82
2018-09-04T13:34:59.171Z,73.46
2018-09-04T13:35:59.116Z,73.18
2018-09-04T13:36:59.223Z,74.05
2018-09-04T13:37:59.133Z,74.3
2018-09-04T13:38:59.128Z,74.17
2018-09-04T13:39:59.415Z,74.3
2018-09-04T13:40:59.140Z,74.65
2018-09-04T13:41:59.152Z,74.75
2018-09-04T13:42:59.153Z,73.72
2018-09-04T13:43:59.127Z,73.37
2018-09-04T13:44:59.356Z,72.88
2018-09-04T13:45:59.173Z,73.33
2018-09-04T13:46:59.260Z,73.52
2018-09-04T13:47:59.125Z,73.14
2018-09-04T13:48:59.198Z,72.85
2018-09-04T13:49:59.132Z,73.72
2018-09-04T13:50:59.140Z,72.88
2018-09-04T13:51:59.146Z,72.75
2018-09-04T13:52:59.151Z,72.85
2018-09-04T13:53:59.162Z,72.85
2018-09-04T13:54:59.198Z,73.33
2018-09-04T13:55:59.140Z,72.85
2018-09-04T13:56:59.194Z,72.85
2018-09-04T13:57:59.149Z,73.18
2018-09-04T13:58:59.157Z,72.88
2018-09-04T13:59:59.170Z,72.85
2018-09-04T14:00:59.203Z,72.45
2018-09-04T14:02:00.613Z,72.27
2018-09-04T14:02:59.169Z,72.69
2018-09-04T14:03:59.154Z,71.72
2018-09-04T14:04:59.165Z,71.97
2018-09-04T14:05:59.180Z,72.49
2018-09-04T14:06:59.210Z,72.2
2018-09-04T14:07:59.221Z,71.62
2018-09-04T14:08:59.221Z,71.91
2018-09-04T14:09:59.167Z,71.23
2018-09-04T14:10:59.187Z,71.03